Hlavní strana
METAR-TAF:

METAR-TAF

Letiště :

Rabat, Maroko

zeměpisná šířka: 34-03N, zeměpisná délka: 006-46W, výška: 84 m

Aktuální stav počasí

Zpráva byla vytvořena před 21 minutami, v 02:30 UTC
vítr z různých směrů 2 kt
Teplota 10°C
Vlhkost vzduchu 93%
Tlak 1012 hPa
Viditelnost 10 km a více
Skoro jasno ve výšce 1600 ft

METAR: GMME 220230Z VRB02KT 9999 FEW016 10/09 Q1012 NOSIG

Čas: 03:51 (02:51 UTC)

Předpověď počasí

Zpráva byla vytvořena před 3 hodinami a 51 minutami, v 23:00 UTC
Předpověď platná od 22 v 00 UTC do 23 v 06 UTC
Severozápadní vítr 4 kt
Viditelnost 10 km a více
Polojasno ve výšce 1500 ft
Změna
od 22 v 02 UTC do 22 v 06 UTC
Severovýchodní vítr 8 kt
Viditelnost: 5000 m
Polojasno ve výšce 1000 ft

TAF: GMME 212300Z 2200/2306 32004KT 9999 SCT015 BECMG 2202/2206 04008KT 5000 SCT010

Stav a předpovědi počasí z více než 4 000 letišť (zprávy METAR a TAF).

Červené a žluté tečky na mapě představují dostupné meteorologické stanice.

Když kurzor umístíte na tečku, zobrazí se název stanice.

Pak kliknutím zobrazíte stav a předpověď počasí.

Chcete-li změnit mapu, kliknutím na zelené tlačítko se znaménkem +mapu přiblížíte, kliknutím na zelené tlačítko se znaménkem – mapu oddálíte a kliknutím na zelené šipky přejdete na sousední mapy.


METAR-TAF: